sensor_id;sensor_type;location;lat;lon;timestamp;P1;durP1;ratioP1;P2;durP2;ratioP2
57375;SDS011;44805;45.048;5.062;2022-10-16T08:38:28;7.03;;;3.27;;
57375;SDS011;44805;45.048;5.062;2022-10-16T08:40:54;5.85;;;2.70;;
57375;SDS011;44805;45.048;5.062;2022-10-16T09:24:51;6.22;;;3.03;;
57375;SDS011;44805;45.048;5.062;2022-10-16T09:27:30;5.32;;;2.28;;
57375;SDS011;44805;45.048;5.062;2022-10-16T09:29:56;4.80;;;2.60;;
57375;SDS011;44805;45.048;5.062;2022-10-16T09:32:30;6.72;;;3.15;;
57375;SDS011;44805;45.048;5.062;2022-10-16T09:35:01;5.20;;;2.10;;
57375;SDS011;44805;45.048;5.062;2022-10-16T09:37:47;4.75;;;2.85;;
57375;SDS011;44805;45.048;5.062;2022-10-16T10:19:55;5.45;;;2.17;;
57375;SDS011;44805;45.048;5.062;2022-10-16T11:03:31;6.10;;;2.40;;
57375;SDS011;44805;45.048;5.062;2022-10-16T11:06:26;5.85;;;2.65;;
57375;SDS011;44805;45.048;5.062;2022-10-16T11:15:42;5.18;;;2.20;;
57375;SDS011;44805;45.048;5.062;2022-10-16T11:18:19;6.00;;;2.60;;
57375;SDS011;44805;45.048;5.062;2022-10-16T11:20:57;4.88;;;2.40;;
57375;SDS011;44805;45.048;5.062;2022-10-16T11:26:04;7.00;;;2.30;;
57375;SDS011;44805;45.048;5.062;2022-10-16T11:28:42;4.32;;;2.05;;
57375;SDS011;44805;45.048;5.062;2022-10-16T11:38:17;4.73;;;2.10;;
57375;SDS011;44805;45.048;5.062;2022-10-16T11:41:10;4.25;;;1.80;;
57375;SDS011;44805;45.048;5.062;2022-10-16T11:47:16;5.70;;;2.25;;
57375;SDS011;44805;45.048;5.062;2022-10-16T11:49:47;5.93;;;2.50;;
57375;SDS011;44805;45.048;5.062;2022-10-16T11:55:14;5.90;;;3.00;;
57375;SDS011;44805;45.048;5.062;2022-10-16T11:57:42;5.18;;;2.55;;
57375;SDS011;44805;45.048;5.062;2022-10-16T12:00:23;7.28;;;3.03;;
57375;SDS011;44805;45.048;5.062;2022-10-16T12:03:15;5.45;;;2.65;;
57375;SDS011;44805;45.048;5.062;2022-10-16T12:08:38;5.00;;;2.63;;
57375;SDS011;44805;45.048;5.062;2022-10-16T12:11:08;5.05;;;2.58;;
57375;SDS011;44805;45.048;5.062;2022-10-16T12:16:51;6.32;;;2.67;;
57375;SDS011;44805;45.048;5.062;2022-10-16T12:19:17;6.30;;;2.72;;
57375;SDS011;44805;45.048;5.062;2022-10-16T12:21:44;5.35;;;2.40;;
57375;SDS011;44805;45.048;5.062;2022-10-16T12:27:00;7.55;;;2.67;;
57375;SDS011;44805;45.048;5.062;2022-10-16T12:29:37;5.97;;;3.13;;
57375;SDS011;44805;45.048;5.062;2022-10-16T12:32:27;5.38;;;2.45;;
57375;SDS011;44805;45.048;5.062;2022-10-16T12:34:57;5.45;;;2.60;;
57375;SDS011;44805;45.048;5.062;2022-10-16T12:37:24;6.13;;;2.67;;
57375;SDS011;44805;45.048;5.062;2022-10-16T12:39:53;5.82;;;2.90;;
57375;SDS011;44805;45.048;5.062;2022-10-16T12:42:31;7.63;;;2.60;;
57375;SDS011;44805;45.048;5.062;2022-10-16T12:45:12;6.05;;;3.10;;
57375;SDS011;44805;45.048;5.062;2022-10-16T12:47:59;6.25;;;2.80;;
57375;SDS011;44805;45.048;5.062;2022-10-16T12:50:31;6.13;;;2.90;;
57375;SDS011;44805;45.048;5.062;2022-10-16T12:53:03;5.47;;;2.67;;
57375;SDS011;44805;45.048;5.062;2022-10-16T12:55:46;6.43;;;3.25;;
57375;SDS011;44805;45.048;5.062;2022-10-16T13:01:04;5.85;;;2.72;;
57375;SDS011;44805;45.048;5.062;2022-10-16T13:03:43;8.30;;;3.42;;
57375;SDS011;44805;45.048;5.062;2022-10-16T13:11:52;6.30;;;3.30;;
57375;SDS011;44805;45.048;5.062;2022-10-16T14:38:50;3.88;;;2.08;;
57375;SDS011;44805;45.048;5.062;2022-10-16T14:42:03;4.43;;;1.88;;
57375;SDS011;44805;45.048;5.062;2022-10-16T14:44:28;3.55;;;1.90;;
57375;SDS011;44805;45.048;5.062;2022-10-16T14:46:57;5.72;;;2.13;;
57375;SDS011;44805;45.048;5.062;2022-10-16T14:49:42;3.85;;;1.80;;
57375;SDS011;44805;45.048;5.062;2022-10-16T14:52:12;4.72;;;2.30;;
57375;SDS011;44805;45.048;5.062;2022-10-16T14:57:22;6.03;;;2.40;;
57375;SDS011;44805;45.048;5.062;2022-10-16T14:59:56;5.05;;;2.33;;
57375;SDS011;44805;45.048;5.062;2022-10-16T15:04:52;3.55;;;2.13;;
57375;SDS011;44805;45.048;5.062;2022-10-16T15:07:19;5.10;;;2.30;;
57375;SDS011;44805;45.048;5.062;2022-10-16T15:09:46;6.32;;;2.20;;
57375;SDS011;44805;45.048;5.062;2022-10-16T15:12:11;5.85;;;2.55;;
57375;SDS011;44805;45.048;5.062;2022-10-16T15:18:14;5.47;;;2.58;;
57375;SDS011;44805;45.048;5.062;2022-10-16T15:30:17;5.80;;;2.78;;
57375;SDS011;44805;45.048;5.062;2022-10-16T15:32:43;4.78;;;2.65;;
57375;SDS011;44805;45.048;5.062;2022-10-16T15:35:08;5.75;;;2.85;;
57375;SDS011;44805;45.048;5.062;2022-10-16T15:37:34;6.53;;;2.50;;
57375;SDS011;44805;45.048;5.062;2022-10-16T15:40:00;5.32;;;2.55;;
57375;SDS011;44805;45.048;5.062;2022-10-16T15:42:26;7.28;;;2.90;;
57375;SDS011;44805;45.048;5.062;2022-10-16T15:47:44;6.25;;;3.00;;
57375;SDS011;44805;45.048;5.062;2022-10-16T15:50:13;5.65;;;2.90;;
57375;SDS011;44805;45.048;5.062;2022-10-16T16:21:03;6.75;;;3.42;;
57375;SDS011;44805;45.048;5.062;2022-10-16T16:23:29;5.85;;;3.08;;
57375;SDS011;44805;45.048;5.062;2022-10-16T16:26:04;6.38;;;3.10;;
57375;SDS011;44805;45.048;5.062;2022-10-16T16:28:51;7.65;;;3.50;;
57375;SDS011;44805;45.048;5.062;2022-10-16T16:31:24;7.15;;;3.10;;
57375;SDS011;44805;45.048;5.062;2022-10-16T16:33:50;6.35;;;3.35;;
57375;SDS011;44805;45.048;5.062;2022-10-16T16:36:16;6.93;;;3.30;;
57375;SDS011;44805;45.048;5.062;2022-10-16T16:38:43;6.35;;;3.42;;
57375;SDS011;44805;45.048;5.062;2022-10-16T16:41:13;7.30;;;3.05;;
57375;SDS011;44805;45.048;5.062;2022-10-16T16:43:44;7.65;;;3.78;;
57375;SDS011;44805;45.048;5.062;2022-10-16T16:46:12;6.40;;;3.80;;
57375;SDS011;44805;45.048;5.062;2022-10-16T16:48:38;7.88;;;3.60;;
57375;SDS011;44805;45.048;5.062;2022-10-16T16:51:05;9.93;;;3.47;;
57375;SDS011;44805;45.048;5.062;2022-10-16T16:53:35;7.18;;;3.45;;
57375;SDS011;44805;45.048;5.062;2022-10-16T16:56:02;6.40;;;3.17;;
57375;SDS011;44805;45.048;5.062;2022-10-16T16:58:38;9.55;;;3.90;;
57375;SDS011;44805;45.048;5.062;2022-10-16T17:04:05;6.38;;;3.30;;
57375;SDS011;44805;45.048;5.062;2022-10-16T17:06:44;10.07;;;3.63;;
57375;SDS011;44805;45.048;5.062;2022-10-16T17:09:12;6.00;;;3.65;;
57375;SDS011;44805;45.048;5.062;2022-10-16T17:11:38;8.77;;;3.78;;
57375;SDS011;44805;45.048;5.062;2022-10-16T17:16:41;7.20;;;4.00;;
57375;SDS011;44805;45.048;5.062;2022-10-16T17:19:10;9.50;;;3.75;;
57375;SDS011;44805;45.048;5.062;2022-10-16T17:21:39;7.18;;;3.30;;
57375;SDS011;44805;45.048;5.062;2022-10-16T17:24:05;7.97;;;4.10;;
57375;SDS011;44805;45.048;5.062;2022-10-16T17:26:33;7.07;;;3.75;;
57375;SDS011;44805;45.048;5.062;2022-10-16T17:29:02;6.90;;;3.63;;
57375;SDS011;44805;45.048;5.062;2022-10-16T17:31:32;9.73;;;4.00;;
57375;SDS011;44805;45.048;5.062;2022-10-16T17:34:02;7.30;;;4.17;;
57375;SDS011;44805;45.048;5.062;2022-10-16T17:36:30;8.05;;;3.88;;
57375;SDS011;44805;45.048;5.062;2022-10-16T17:58:50;6.82;;;3.38;;
57375;SDS011;44805;45.048;5.062;2022-10-16T18:04:38;6.10;;;3.30;;
57375;SDS011;44805;45.048;5.062;2022-10-16T18:07:08;6.57;;;3.42;;
57375;SDS011;44805;45.048;5.062;2022-10-16T18:09:34;6.22;;;3.00;;
57375;SDS011;44805;45.048;5.062;2022-10-16T18:15:03;9.32;;;3.85;;
57375;SDS011;44805;45.048;5.062;2022-10-16T18:17:29;6.90;;;3.70;;
57375;SDS011;44805;45.048;5.062;2022-10-16T18:20:31;6.13;;;3.60;;
57375;SDS011;44805;45.048;5.062;2022-10-16T18:23:07;8.73;;;4.18;;
57375;SDS011;44805;45.048;5.062;2022-10-16T18:25:35;7.93;;;3.90;;
57375;SDS011;44805;45.048;5.062;2022-10-16T18:28:08;9.02;;;4.13;;
57375;SDS011;44805;45.048;5.062;2022-10-16T18:30:33;8.07;;;3.97;;
57375;SDS011;44805;45.048;5.062;2022-10-16T23:20:34;8.20;;;4.55;;
57375;SDS011;44805;45.048;5.062;2022-10-16T23:23:09;8.23;;;4.72;;
57375;SDS011;44805;45.048;5.062;2022-10-16T23:25:35;8.30;;;4.60;;
57375;SDS011;44805;45.048;5.062;2022-10-16T23:28:03;8.70;;;5.00;;
57375;SDS011;44805;45.048;5.062;2022-10-16T23:30:28;11.60;;;5.07;;
57375;SDS011;44805;45.048;5.062;2022-10-16T23:32:54;12.60;;;5.22;;
57375;SDS011;44805;45.048;5.062;2022-10-16T23:35:19;8.43;;;5.15;;
57375;SDS011;44805;45.048;5.062;2022-10-16T23:37:45;8.82;;;4.38;;
57375;SDS011;44805;45.048;5.062;2022-10-16T23:40:10;11.10;;;5.03;;
57375;SDS011;44805;45.048;5.062;2022-10-16T23:42:36;8.75;;;4.90;;
57375;SDS011;44805;45.048;5.062;2022-10-16T23:45:01;9.43;;;4.43;;
57375;SDS011;44805;45.048;5.062;2022-10-16T23:47:27;9.48;;;5.43;;
57375;SDS011;44805;45.048;5.062;2022-10-16T23:49:52;13.13;;;6.13;;
57375;SDS011;44805;45.048;5.062;2022-10-16T23:52:18;8.65;;;5.10;;
57375;SDS011;44805;45.048;5.062;2022-10-16T23:54:43;10.13;;;4.68;;
57375;SDS011;44805;45.048;5.062;2022-10-16T23:57:08;9.27;;;5.00;;
57375;SDS011;44805;45.048;5.062;2022-10-16T23:59:34;9.00;;;5.32;;
